Kezdőlap
METAR-TAF:

METAR-TAF

Repülőterek :

Mahiljov, Fehéroroszország

földrajzi szélesség: 53-57-18N, földrajzi hosszúság: 030-05-42E, magasság: 194 m

Jelenlegi meteorológiai megfigyelések

A jelentés 26 perccel ezelõtt készült, 13:00 UTC
Északkeleti szél 6 kt
Hőmérséklet 1°C
Páratartalom 86%
Légköri nyomás 1043 hPa
Látótávolság: 9000 m

METAR: UMOO 161300Z 05003MPS 9000 NSC 01/M01 Q1043 R13/710060 NOSIG

Idő: 16:26 (13:26 UTC)

Előrejelzés

A jelentés 2 órával és 26 perccel ezelõtt készült, 11:00 UTC
Az előrejelzés 16-én 12 óra UTC és 16-én 21 óra UTC között érvényes
Különbözõ irányokból fújó szél 4 kt
Látótávolság: 8000 m
Szórványos felhőzet 1000 lábon
16-én 15 óra UTC és 16-én 21 óra UTC között ideiglenes
Látótávolság: 1200 m
Szórványos felhőzet 400 lábon
Párásság

TAF: UMOO 161100Z 1612/1621 VRB02MPS 8000 SCT010 TX01/1613Z TNM05/1621Z TEMPO 1615/1621 1200 BR SCT004

Meteorológiai megfigyelések és előrejelzések több, mint 4000 repülőtéren (METAR és TAF jelentéseket).

A térképen piros és sárga pontok jelzik az elérhető meteorológiai állomásokat.

Mozgassa az egeret a pont fölött, hogy megjelenjen az állomás neve.

Azután kattintson az időjárási megfigyelések és előrejelzések megtekintéséhez.

A térkép megváltoztatása: kattintson a fekete keresztel jelölt zöld gombra ráközelítéshez, a vonallal jelölt zöld gombra távolításhoz, vagy a zöld nyilakra a szomszédos térképek eléréséhez.


METAR-TAF: